Time;durP1;ratioP1;P1;durP2;ratioP2;P2;SDS_P1;SDS_P2;PMS_P1;PMS_P2;Temp;Humidity;BMP_temperature;BMP_pressure;BME280_temperature;BME280_humidity;BME280_pressure;Samples;Min_cycle;Max_cycle;Signal;HPM_P1;HPM_P2
2022/08/05 00:00:09;;;;;;;;;7.67;6.00;;;;;19.84;100.00;101180.31;5013863;28;45517;-81
2022/08/05 00:02:59;;;;;;;;;6.00;3.33;;;;;19.82;100.00;101267.97;4977110;28;46021;-81
2022/08/05 00:05:37;;;;;;;;;12.67;10.33;;;;;19.60;100.00;101223.41;5013126;28;45348;-81
2022/08/05 00:08:04;;;;;;;;;6.00;4.67;;;;;19.85;100.00;101246.03;5020570;28;45175;-80
2022/08/05 00:11:10;;;;;;;;;;;;;;;;;;;;;
2022/08/05 00:14:21;;;;;;;;;;;;;;;;;;;;;
2022/08/05 00:17:48;;;;;;;;;;;;;;;;;;;;;
2022/08/05 00:20:23;;;;;;;;;5.00;4.00;;;;;19.61;100.00;101253.75;5000972;28;72344;-79
2022/08/05 00:22:55;;;;;;;;;6.00;6.00;;;;;19.65;100.00;101281.91;5012168;28;45810;-77
2022/08/05 00:25:36;;;;;;;;;5.00;4.00;;;;;19.53;100.00;101299.53;5010561;28;45579;-84
2022/08/05 00:28:04;;;;;;;;;4.00;4.00;;;;;19.97;100.00;101364.75;5017119;28;45537;-83
2022/08/05 00:30:30;;;;;;;;;9.67;6.67;;;;;19.92;100.00;101270.88;5027161;28;45637;-82
2022/08/05 00:32:55;;;;;;;;;39.33;26.00;;;;;19.85;100.00;101234.91;5017194;28;45684;-84
2022/08/05 00:35:21;;;;;;;;;42.33;33.00;;;;;20.04;100.00;101267.97;5017425;28;45983;-82
2022/08/05 00:37:47;;;;;;;;;27.67;22.00;;;;;19.88;100.00;101223.25;5012645;28;46003;-83
2022/08/05 00:40:13;;;;;;;;;12.33;10.00;;;;;20.10;100.00;101269.72;5016596;28;45744;-83
2022/08/05 00:42:38;;;;;;;;;6.67;6.67;;;;;20.03;100.00;101336.75;5016672;28;45780;-83
2022/08/05 00:45:06;;;;;;;;;10.00;6.67;;;;;20.17;100.00;101362.25;5015205;28;45708;-81
2022/08/05 00:47:32;;;;;;;;;7.67;6.33;;;;;20.22;100.00;101330.84;5012900;28;47086;-83
2022/08/05 00:49:57;;;;;;;;;3.00;3.00;;;;;20.13;100.00;101232.97;5016987;28;45533;-85
2022/08/05 00:52:23;;;;;;;;;8.00;7.00;;;;;20.24;100.00;101298.00;5003292;28;45767;-77
2022/08/05 00:54:49;;;;;;;;;6.00;4.33;;;;;20.31;100.00;101304.22;5015858;28;45599;-78
2022/08/05 00:57:16;;;;;;;;;10.33;8.33;;;;;20.31;100.00;101284.72;5012273;28;45887;-76
2022/08/05 00:59:41;;;;;;;;;9.67;7.00;;;;;20.30;100.00;101249.63;5015310;28;45758;-83
2022/08/05 01:02:07;;;;;;;;;7.67;5.67;;;;;20.36;100.00;101270.84;5015888;28;45749;-84
2022/08/05 01:04:32;;;;;;;;;7.33;7.33;;;;;20.38;100.00;101278.94;5014974;28;45427;-83
2022/08/05 01:06:58;;;;;;;;;4.33;4.33;;;;;20.32;100.00;101269.69;5018663;28;46202;-82
2022/08/05 01:09:24;;;;;;;;;6.33;4.00;;;;;20.37;100.00;101241.88;5014373;28;45731;-81
2022/08/05 01:11:57;;;;;;;;;3.00;2.00;;;;;20.35;100.00;101251.63;5013107;28;45423;-82
2022/08/05 01:14:25;;;;;;;;;2.33;2.33;;;;;20.28;100.00;101263.81;5014609;28;45419;-79
2022/08/05 01:16:56;;;;;;;;;3.00;3.00;;;;;20.39;100.00;101261.13;5012217;28;45552;-82
2022/08/05 01:19:21;;;;;;;;;8.67;5.00;;;;;20.38;100.00;101259.44;5012599;28;45729;-81
2022/08/05 01:21:57;;;;;;;;;6.00;4.67;;;;;20.39;100.00;101263.91;5012875;28;45721;-81
2022/08/05 01:24:48;;;;;;;;;6.33;4.33;;;;;20.38;100.00;101268.63;5008952;28;45313;-78
2022/08/05 01:27:38;;;;;;;;;4.67;4.00;;;;;20.40;100.00;101260.03;5012522;28;46672;-77
2022/08/05 01:30:05;;;;;;;;;6.00;3.33;;;;;20.42;100.00;101253.09;5013862;28;45818;-78
2022/08/05 01:32:37;;;;;;;;;3.33;3.00;;;;;20.31;100.00;101233.75;5013066;28;45479;-77
2022/08/05 01:35:14;;;;;;;;;8.00;4.00;;;;;20.42;100.00;101224.41;5012881;28;45590;-76
2022/08/05 01:37:51;;;;;;;;;6.00;2.00;;;;;20.49;100.00;101225.00;5015048;28;46399;-76
2022/08/05 01:40:20;;;;;;;;;3.00;3.00;;;;;20.46;100.00;101198.53;5020413;28;44836;-79
2022/08/05 01:42:49;;;;;;;;;3.67;2.67;;;;;20.49;100.00;101191.56;5012012;28;45433;-82
2022/08/05 01:45:17;;;;;;;;;3.00;2.33;;;;;20.50;100.00;101184.91;5013882;28;45931;-81
2022/08/05 01:47:45;;;;;;;;;5.67;3.67;;;;;20.50;100.00;101178.50;5013571;28;45858;-81
2022/08/05 01:50:16;;;;;;;;;4.67;3.67;;;;;20.42;100.00;101177.88;5011494;28;45464;-81
2022/08/05 01:52:44;;;;;;;;;3.33;3.00;;;;;20.38;100.00;101198.16;5001532;28;45941;-82
2022/08/05 01:55:12;;;;;;;;;4.67;2.33;;;;;20.43;100.00;101215.78;5012310;28;47341;-81
2022/08/05 01:57:43;;;;;;;;;2.00;2.00;;;;;20.36;100.00;101220.72;5016224;28;46786;-81
2022/08/05 02:00:11;;;;;;;;;3.67;1.67;;;;;20.45;100.00;101254.53;4997021;28;45719;-81
2022/08/05 02:02:42;;;;;;;;;4.00;2.00;;;;;20.40;100.00;101215.44;5001407;28;45337;-80
2022/08/05 02:05:11;;;;;;;;;2.00;2.00;;;;;20.43;100.00;101198.19;5012776;28;45614;-78
2022/08/05 02:07:37;;;;;;;;;3.67;3.67;;;;;20.50;100.00;101198.00;5016972;28;46158;-77
2022/08/05 02:10:04;;;;;;;;;3.00;2.33;;;;;20.48;100.00;101170.41;5012618;28;45897;-78
2022/08/05 02:12:36;;;;;;;;;2.00;2.00;;;;;20.46;100.00;101169.81;5012395;28;45465;-77
2022/08/05 02:15:11;;;;;;;;;4.00;4.00;;;;;20.36;100.00;101175.28;5012453;28;45372;-77
2022/08/05 02:17:42;;;;;;;;;3.67;2.33;;;;;20.40;100.00;101187.59;5023085;28;47127;-78
2022/08/05 02:20:16;;;;;;;;;3.00;3.00;;;;;20.46;100.00;101192.09;5019110;28;45559;-78
2022/08/05 02:22:46;;;;;;;;;2.00;2.00;;;;;20.37;100.00;101172.22;5005663;28;45519;-78
2022/08/05 02:25:23;;;;;;;;;4.00;3.00;;;;;20.50;100.00;101193.25;5019036;28;45986;-81
2022/08/05 02:27:50;;;;;;;;;3.33;2.33;;;;;20.52;100.00;101204.97;5016840;28;46250;-82
2022/08/05 02:30:17;;;;;;;;;5.33;2.33;;;;;20.53;100.00;101220.59;5011679;28;45973;-81
2022/08/05 02:32:48;;;;;;;;;6.33;3.67;;;;;20.54;100.00;101230.63;5020125;28;45959;-82
2022/08/05 02:35:17;;;;;;;;;4.33;2.00;;;;;20.70;100.00;101245.56;5007328;28;46281;-76
2022/08/05 02:37:44;;;;;;;;;3.67;2.00;;;;;20.62;100.00;101219.00;5006583;28;45474;-76
2022/08/05 02:40:11;;;;;;;;;3.00;3.00;;;;;20.69;100.00;101229.97;5020420;28;45343;-78
2022/08/05 02:42:38;;;;;;;;;2.67;2.67;;;;;20.74;100.00;101254.25;5021365;28;45448;-77
2022/08/05 02:45:05;;;;;;;;;3.00;3.00;;;;;20.60;100.00;101228.75;5020505;28;46341;-76
2022/08/05 02:47:34;;;;;;;;;2.00;2.00;;;;;20.71;100.00;101215.78;5044735;28;47102;-77
2022/08/05 02:50:00;;;;;;;;;2.33;2.33;;;;;20.86;100.00;101206.69;5021833;28;45445;-77
2022/08/05 02:52:26;;;;;;;;;2.67;2.67;;;;;20.64;100.00;101169.44;5020534;28;45431;-79
2022/08/05 02:54:53;;;;;;;;;3.00;2.00;;;;;20.67;100.00;101164.44;5032753;28;45374;-79
2022/08/05 02:57:21;;;;;;;;;5.00;3.00;;;;;20.82;100.00;101175.69;5009997;28;45372;-77
2022/08/05 02:59:48;;;;;;;;;2.00;2.00;;;;;20.81;100.00;101157.31;5019861;28;45448;-78
2022/08/05 03:02:16;;;;;;;;;1.00;1.00;;;;;20.71;100.00;101155.28;5020925;28;45433;-78
2022/08/05 03:04:43;;;;;;;;;5.33;3.00;;;;;20.64;100.00;101163.00;5020485;28;45574;-78
2022/08/05 03:07:09;;;;;;;;;4.00;2.00;;;;;20.56;100.00;101174.66;5032920;28;45403;-77
2022/08/05 03:09:36;;;;;;;;;2.00;2.00;;;;;20.62;100.00;101199.50;5008072;28;45369;-76
2022/08/05 03:12:02;;;;;;;;;2.00;2.00;;;;;20.59;100.00;101197.22;5032511;28;45409;-77
2022/08/05 03:14:28;;;;;;;;;3.00;2.67;;;;;20.57;100.00;101202.25;5022578;28;45344;-79
2022/08/05 03:16:53;;;;;;;;;4.00;2.00;;;;;20.48;100.00;101194.63;5017588;28;47462;-78
2022/08/05 03:19:19;;;;;;;;;5.00;4.00;;;;;20.61;100.00;101222.06;5031047;28;45760;-78
2022/08/05 03:21:44;;;;;;;;;3.67;3.00;;;;;20.59;100.00;101200.03;5021353;28;44991;-81
2022/08/05 03:24:10;;;;;;;;;4.00;3.00;;;;;20.56;100.00;101196.94;5019750;28;45443;-78
2022/08/05 03:26:36;;;;;;;;;4.00;2.33;;;;;20.54;100.00;101187.97;5019083;28;46676;-77
2022/08/05 03:29:03;;;;;;;;;3.00;3.00;;;;;20.57;100.00;101193.03;5023773;28;45343;-80
2022/08/05 03:31:29;;;;;;;;;2.67;2.33;;;;;20.57;100.00;101181.88;5022452;28;45383;-77
2022/08/05 03:33:56;;;;;;;;;4.00;3.67;;;;;20.60;100.00;101189.72;5019915;28;45592;-78
2022/08/05 03:36:22;;;;;;;;;3.33;3.00;;;;;20.36;100.00;101169.72;5022234;28;46392;-81
2022/08/05 03:38:47;;;;;;;;;5.33;3.67;;;;;20.40;100.00;101174.47;5021929;28;45447;-77
2022/08/05 03:41:15;;;;;;;;;2.67;2.00;;;;;20.54;100.00;101193.56;5006528;28;45473;-77
2022/08/05 03:43:40;;;;;;;;;2.00;2.00;;;;;20.52;100.00;101181.84;5019572;28;45771;-79
2022/08/05 03:46:05;;;;;;;;;2.00;2.00;;;;;20.49;100.00;101197.13;5018529;28;47048;-79
2022/08/05 03:48:31;;;;;;;;;5.33;3.00;;;;;20.40;100.00;101187.59;5020270;28;45420;-79
2022/08/05 03:51:11;;;;;;;;;3.67;3.67;;;;;20.48;100.00;101197.41;5019945;28;45418;-79
2022/08/05 03:54:13;;;;;;;;;3.00;3.00;;;;;20.50;100.00;101209.97;5019645;28;46178;-79
2022/08/05 03:56:42;;;;;;;;;2.00;2.00;;;;;20.37;100.00;101180.59;5002084;28;46296;-78
2022/08/05 03:59:21;;;;;;;;;5.00;4.00;;;;;20.51;100.00;101210.81;5021368;28;45431;-76
2022/08/05 04:01:49;;;;;;;;;4.33;3.00;;;;;20.47;100.00;101204.94;5019062;28;45356;-78
2022/08/05 04:04:15;;;;;;;;;4.33;3.00;;;;;20.39;100.00;101197.03;5021929;28;45906;-77
2022/08/05 04:06:42;;;;;;;;;4.00;4.00;;;;;20.57;100.00;101209.75;5023215;28;47075;-79
2022/08/05 04:09:08;;;;;;;;;3.00;3.00;;;;;20.58;100.00;101212.28;5023496;28;45452;-76
2022/08/05 04:11:35;;;;;;;;;5.00;3.67;;;;;20.57;100.00;101202.25;5034955;28;45618;-78
2022/08/05 04:14:02;;;;;;;;;5.00;3.00;;;;;20.56;100.00;101202.50;5012546;28;45731;-78
2022/08/05 04:16:28;;;;;;;;;3.33;3.00;;;;;20.53;100.00;101186.31;5023777;28;46000;-77
2022/08/05 04:18:54;;;;;;;;;6.00;6.00;;;;;20.55;100.00;101200.81;5024262;28;45391;-77
2022/08/05 04:21:20;;;;;;;;;4.00;3.67;;;;;20.54;100.00;101188.84;5023641;28;45447;-76
2022/08/05 04:23:45;;;;;;;;;4.00;4.00;;;;;20.43;100.00;101176.78;5025184;28;45374;-78
2022/08/05 04:26:13;;;;;;;;;2.00;2.00;;;;;20.55;100.00;101193.28;5026575;28;45999;-79
2022/08/05 04:28:39;;;;;;;;;4.00;4.00;;;;;20.49;100.00;101190.75;5025918;28;45539;-77
2022/08/05 04:31:04;;;;;;;;;4.00;3.00;;;;;20.56;100.00;101196.94;5019937;28;45415;-77
2022/08/05 04:33:30;;;;;;;;;5.33;4.67;;;;;20.53;100.00;101187.16;5014749;28;45529;-76
2022/08/05 04:35:55;;;;;;;;;22.00;19.00;;;;;20.49;100.00;101191.56;5022622;28;47749;-78
2022/08/05 04:38:21;;;;;;;;;6.00;6.00;;;;;20.55;100.00;101190.50;5022209;28;45493;-77
2022/08/05 04:40:46;;;;;;;;;6.00;6.00;;;;;20.49;100.00;101190.75;5024511;28;45426;-78
2022/08/05 04:43:15;;;;;;;;;5.00;3.33;;;;;20.53;100.00;101191.91;5023658;28;45345;-78
2022/08/05 04:45:41;;;;;;;;;11.33;9.33;;;;;20.51;100.00;101196.88;5022027;28;47653;-77
2022/08/05 04:48:08;;;;;;;;;4.67;4.67;;;;;20.45;100.00;101204.38;5023024;28;45432;-81
2022/08/05 04:50:52;;;;;;;;;5.33;5.00;;;;;20.28;100.00;101188.59;5024033;28;45451;-78
2022/08/05 04:53:18;;;;;;;;;5.00;4.33;;;;;20.45;100.00;101207.16;5013180;28;45483;-78
2022/08/05 04:55:44;;;;;;;;;4.00;3.67;;;;;20.39;100.00;101199.81;5021057;28;46996;-79
2022/08/05 04:58:13;;;;;;;;;2.33;2.33;;;;;20.44;100.00;101206.28;5020417;28;45744;-80
2022/08/05 05:00:39;;;;;;;;;3.33;1.00;;;;;20.40;100.00;101204.31;5017841;28;45398;-79
2022/08/05 05:03:06;;;;;;;;;13.33;10.00;;;;;20.55;100.00;101218.38;5007130;28;45465;-79
2022/08/05 05:05:32;;;;;;;;;4.00;4.00;;;;;20.61;100.00;101220.13;5021101;28;45396;-80
2022/08/05 05:08:03;;;;;;;;;3.00;3.00;;;;;20.76;100.00;101218.59;5025817;28;45570;-81
2022/08/05 05:10:40;;;;;;;;;5.33;3.00;;;;;21.06;100.00;101219.94;5021578;28;45711;-81
2022/08/05 05:13:06;;;;;;;;;3.00;3.00;;;;;21.42;100.00;101212.66;5026510;28;45400;-83
2022/08/05 05:15:32;;;;;;;;;6.67;3.67;;;;;21.49;100.00;101198.44;5024384;28;45664;-79
2022/08/05 05:17:57;;;;;;;;;9.67;2.00;;;;;21.58;100.00;101208.00;5032381;28;45479;-77
2022/08/05 05:20:23;;;;;;;;;3.00;3.00;;;;;21.65;100.00;101219.78;5020203;28;45482;-77
2022/08/05 05:22:48;;;;;;;;;3.00;2.33;;;;;21.62;100.00;101214.72;5025757;28;46025;-79
2022/08/05 05:25:14;;;;;;;;;3.00;3.00;;;;;21.65;100.00;101214.19;5014338;28;46563;-78
2022/08/05 05:27:39;;;;;;;;;3.00;3.00;;;;;21.77;100.00;101225.13;5018252;28;45768;-78
2022/08/05 05:30:05;;;;;;;;;4.00;3.00;;;;;21.77;100.00;101211.16;5031379;28;45639;-79
2022/08/05 05:32:31;;;;;;;;;3.00;3.00;;;;;21.94;100.00;101226.88;5026632;28;45463;-78
2022/08/05 05:34:56;;;;;;;;;3.67;2.67;;;;;21.97;100.00;101229.13;5003566;28;47959;-78
2022/08/05 05:37:22;;;;;;;;;3.33;3.33;;;;;22.08;100.00;101243.94;5017415;28;45389;-79
2022/08/05 05:39:51;;;;;;;;;3.00;3.00;;;;;22.14;100.00;101237.25;5023774;28;45367;-80
2022/08/05 05:42:17;;;;;;;;;3.00;3.00;;;;;22.20;100.00;101247.31;5020853;28;46536;-80
2022/08/05 05:44:42;;;;;;;;;6.00;4.67;;;;;22.28;100.00;101255.19;5019045;28;46727;-79
2022/08/05 05:47:08;;;;;;;;;5.67;3.67;;;;;22.17;100.00;101225.53;5021197;28;45779;-78
2022/08/05 05:49:33;;;;;;;;;4.67;3.67;;;;;22.32;100.00;101241.53;5022698;28;45407;-79
2022/08/05 05:51:59;;;;;;;;;3.00;3.00;;;;;22.38;100.00;101255.25;5009246;28;45364;-81
2022/08/05 05:54:26;;;;;;;;;3.67;3.67;;;;;22.28;100.00;101230.03;5023308;28;45621;-81
2022/08/05 05:56:52;;;;;;;;;4.00;3.00;;;;;22.97;100.00;101238.25;5029317;28;45403;-81
2022/08/05 05:59:18;;;;;;;;;4.00;3.00;;;;;23.86;100.00;101221.00;5024296;28;45338;-80
2022/08/05 06:01:44;;;;;;;;;3.00;2.00;;;;;24.83;100.00;101209.16;5040305;28;45576;-81
2022/08/05 06:04:12;;;;;;;;;2.75;2.00;;;;;25.79;100.00;101210.41;5023364;28;45155;-81
2022/08/05 06:06:41;;;;;;;;;2.67;2.33;;;;;26.82;100.00;101203.31;5022056;28;45427;-80
2022/08/05 06:09:06;;;;;;;;;3.50;3.25;;;;;27.97;100.00;101226.22;5018991;28;45376;-80
2022/08/05 06:11:32;;;;;;;;;3.00;3.00;;;;;28.95;100.00;101227.56;5023054;28;45708;-81
2022/08/05 06:13:58;;;;;;;;;3.00;3.00;;;;;29.77;100.00;101233.81;5023599;28;46363;-81
2022/08/05 06:16:24;;;;;;;;;3.25;3.25;;;;;30.54;100.00;101229.81;5023890;28;45476;-80
2022/08/05 06:18:50;;;;;;;;;3.25;3.25;;;;;31.33;100.00;101234.22;5021457;28;45405;-81
2022/08/05 06:21:16;;;;;;;;;3.50;2.25;;;;;32.12;99.79;101231.00;5021842;28;45355;-81
2022/08/05 06:23:42;;;;;;;;;3.25;2.25;;;;;32.98;89.31;101235.47;5019440;28;47660;-81
2022/08/05 06:26:07;;;;;;;;;2.00;2.00;;;;;33.65;80.99;101232.56;5026300;28;45412;-80
2022/08/05 06:28:33;;;;;;;;;3.25;3.00;;;;;34.19;73.49;101220.91;5020607;28;45393;-80
2022/08/05 06:30:58;;;;;;;;;4.50;2.00;;;;;34.95;66.39;101232.53;5023041;28;46639;-81
2022/08/05 06:33:24;;;;;;;;;4.00;2.75;;;;;35.57;61.03;101217.06;5012410;28;45617;-79
2022/08/05 06:35:50;;;;;;;;;2.25;2.00;;;;;36.12;56.10;101231.47;5016223;28;45418;-79
2022/08/05 06:38:16;;;;;;;;;5.00;3.00;;;;;36.73;53.22;101233.63;5022531;28;45687;-79
2022/08/05 06:40:42;;;;;;;;;3.00;3.00;;;;;37.44;49.93;101236.25;5015866;28;45439;-78
2022/08/05 06:43:07;;;;;;;;;3.50;3.50;;;;;38.10;47.42;101246.69;5020237;28;45419;-76
2022/08/05 06:45:39;;;;;;;;;2.00;2.00;;;;;38.66;44.73;101245.06;5032219;28;45482;-79
2022/08/05 06:48:05;;;;;;;;;4.75;4.00;;;;;39.08;41.95;101241.03;5020924;28;45495;-78
2022/08/05 06:50:30;;;;;;;;;5.00;4.50;;;;;39.57;39.76;101219.00;5027775;28;46189;-78
2022/08/05 06:52:56;;;;;;;;;2.75;2.75;;;;;40.45;38.33;101245.00;5020655;28;45469;-77
2022/08/05 06:55:21;;;;;;;;;2.50;2.50;;;;;40.68;36.60;101236.09;5033414;28;45306;-78
2022/08/05 06:57:47;;;;;;;;;3.00;3.00;;;;;41.02;35.43;101250.19;5044453;28;45431;-81
2022/08/05 07:00:19;;;;;;;;;2.75;2.75;;;;;41.39;34.53;101246.13;5029703;28;45409;-81
2022/08/05 07:02:46;;;;;;;;;3.50;3.50;;;;;41.94;33.54;101241.19;5018531;28;45542;-77
2022/08/05 07:05:13;;;;;;;;;3.50;2.75;;;;;42.29;32.36;101242.34;5021849;28;45189;-80
2022/08/05 07:07:43;;;;;;;;;1.25;1.25;;;;;42.70;31.67;101247.59;5016160;28;45324;-79
2022/08/05 07:10:10;;;;;;;;;4.00;3.00;;;;;43.02;30.43;101247.41;5022015;28;45408;-83
2022/08/05 07:18:07;;;;;;;;;2.00;2.00;;;;;44.72;28.37;101258.22;5024035;28;45306;-80
2022/08/05 07:20:33;;;;;;;;;3.00;3.00;;;;;45.12;27.17;101264.28;5023722;28;45635;-82
2022/08/05 07:23:02;;;;;;;;;3.25;3.25;;;;;44.93;26.89;101221.50;5026385;28;47228;-79
2022/08/05 07:25:28;;;;;;;;;2.50;2.50;;;;;45.21;26.25;101252.13;5027923;28;45517;-82
2022/08/05 07:27:54;;;;;;;;;2.75;2.75;;;;;45.10;26.12;101223.34;5021644;28;45470;-82
2022/08/05 07:30:20;;;;;;;;;2.00;2.00;;;;;45.68;25.59;101262.97;5015238;28;46081;-80
2022/08/05 07:32:45;;;;;;;;;2.00;2.00;;;;;45.88;25.56;101253.53;5006982;28;47443;-82
2022/08/05 07:35:12;;;;;;;;;4.50;3.25;;;;;46.03;24.96;101251.19;5031580;28;44810;-80
2022/08/05 07:37:38;;;;;;;;;4.00;3.00;;;;;46.36;24.45;101260.06;5026782;28;45315;-81
2022/08/05 07:40:05;;;;;;;;;4.33;4.33;;;;;46.66;24.47;101267.72;5028067;28;45840;-84
2022/08/05 07:42:32;;;;;;;;;3.25;2.00;;;;;46.68;23.86;101250.69;5030397;28;45507;-81
2022/08/05 07:44:57;;;;;;;;;2.75;2.75;;;;;47.07;23.32;101283.81;5024811;28;45427;-81
2022/08/05 07:47:26;;;;;;;;;1.75;1.75;;;;;47.39;24.02;101288.88;5038188;28;45387;-84
2022/08/05 07:49:52;;;;;;;;;2.00;2.00;;;;;47.77;22.42;101270.09;4998549;28;45927;-82
2022/08/05 07:52:18;;;;;;;;;2.00;2.00;;;;;48.01;22.54;101281.50;5026369;28;45487;-80
2022/08/05 07:54:44;;;;;;;;;4.00;3.00;;;;;48.29;22.25;101296.53;5032790;28;45336;-82
2022/08/05 07:57:11;;;;;;;;;2.00;2.00;;;;;48.23;21.99;101273.81;5035689;28;45423;-82
2022/08/05 07:59:36;;;;;;;;;3.00;3.00;;;;;48.52;21.27;101292.56;5024823;28;45532;-81
2022/08/05 08:02:02;;;;;;;;;2.67;2.67;;;;;48.72;21.25;101299.00;5035735;28;45700;-77
2022/08/05 08:04:27;;;;;;;;;2.67;2.67;;;;;48.94;21.04;101296.28;5007514;28;45410;-77
2022/08/05 08:06:54;;;;;;;;;3.00;3.00;;;;;49.35;21.20;101301.66;5020479;28;45417;-79
2022/08/05 08:09:19;;;;;;;;;2.00;2.00;;;;;49.28;20.48;101291.88;5018017;28;46268;-79
2022/08/05 08:11:45;;;;;;;;;4.00;4.00;;;;;49.46;20.44;101310.84;5011783;28;45444;-79
2022/08/05 08:14:10;;;;;;;;;2.00;2.00;;;;;49.80;20.22;101306.41;5027468;28;45865;-79
2022/08/05 08:16:36;;;;;;;;;2.33;2.33;;;;;50.09;19.65;101317.88;5019049;28;45299;-77
2022/08/05 08:19:01;;;;;;;;;3.00;2.00;;;;;49.81;19.63;101320.50;5019266;28;45942;-79
2022/08/05 08:21:27;;;;;;;;;5.00;3.67;;;;;49.78;19.79;101326.44;5020430;28;46345;-79
2022/08/05 08:23:52;;;;;;;;;4.00;1.33;;;;;49.78;19.86;101308.94;5024424;28;45466;-77
2022/08/05 08:26:18;;;;;;;;;2.25;2.25;;;;;49.67;19.36;101302.69;5021592;28;45541;-83
2022/08/05 08:29:07;;;;;;;;;3.33;3.00;;;;;49.91;18.97;101329.38;5025582;28;45718;-81
2022/08/05 08:31:32;;;;;;;;;2.00;2.00;;;;;49.73;19.00;101312.47;5020583;28;46165;-78
2022/08/05 08:33:58;;;;;;;;;3.00;3.00;;;;;49.96;18.69;101326.69;5023595;28;45455;-82
2022/08/05 08:36:26;;;;;;;;;2.00;2.00;;;;;50.63;18.80;101320.94;5021307;28;45494;-82
2022/08/05 08:38:54;;;;;;;;;1.00;1.00;;;;;50.92;17.96;101334.41;5025745;28;45295;-83
2022/08/05 08:41:21;;;;;;;;;4.00;3.00;;;;;50.77;18.15;101311.63;5028960;28;45344;-81
2022/08/05 08:43:49;;;;;;;;;4.67;3.00;;;;;50.87;18.39;101321.22;5027888;28;45510;-80
2022/08/05 08:46:16;;;;;;;;;5.00;3.00;;;;;51.25;17.77;101331.00;5037071;28;45418;-80
2022/08/05 08:48:45;;;;;;;;;2.33;2.00;;;;;51.30;17.77;101337.09;5021396;28;45923;-79
2022/08/05 08:51:12;;;;;;;;;5.00;3.00;;;;;51.70;17.51;101335.44;5022936;28;46198;-78
2022/08/05 08:53:38;;;;;;;;;4.00;4.00;;;;;51.69;17.50;101340.47;5022370;28;45950;-77
2022/08/05 08:56:04;;;;;;;;;2.33;2.33;;;;;51.87;17.44;101338.88;5034006;28;45701;-79
2022/08/05 08:58:30;;;;;;;;;2.67;2.67;;;;;51.94;17.48;101338.56;5028993;28;45537;-77
2022/08/05 09:00:56;;;;;;;;;2.00;2.00;;;;;52.11;17.14;101350.00;5024685;28;45494;-77
2022/08/05 09:03:23;;;;;;;;;3.33;3.33;;;;;52.23;17.27;101346.09;5024327;28;45334;-82
2022/08/05 09:05:49;;;;;;;;;2.67;2.67;;;;;52.54;16.46;101348.06;5007249;28;45420;-77
2022/08/05 09:08:15;;;;;;;;;4.33;3.00;;;;;52.93;16.40;101349.13;5030483;28;45420;-78
2022/08/05 09:10:43;;;;;;;;;2.00;2.00;;;;;53.23;16.10;101360.28;5025440;28;47168;-82
2022/08/05 09:13:12;;;;;;;;;1.00;1.00;;;;;53.07;16.29;101353.47;5034690;28;45491;-78
2022/08/05 09:15:42;;;;;;;;;2.00;2.00;;;;;53.06;16.50;101348.94;5024633;28;45567;-79
2022/08/05 09:18:09;;;;;;;;;3.67;1.67;;;;;53.07;16.77;101352.69;5017128;28;45433;-76
2022/08/05 09:20:43;;;;;;;;;2.33;2.00;;;;;53.81;15.71;101361.97;5006777;28;47268;-79
2022/08/05 09:23:20;;;;;;;;;3.00;3.00;;;;;54.40;15.51;101369.38;5000105;28;45495;-81
2022/08/05 09:26:18;;;;;;;;;3.33;1.00;;;;;54.30;15.06;101359.00;5010325;28;45519;-78
2022/08/05 09:28:46;;;;;;;;;2.00;2.00;;;;;53.73;15.52;101340.16;5005624;28;45436;-80
2022/08/05 09:31:17;;;;;;;;;4.33;2.67;;;;;53.85;16.01;101361.75;5014402;28;46095;-78
2022/08/05 09:34:04;;;;;;;;;2.00;2.00;;;;;54.02;15.41;101355.47;5004830;28;45435;-79
2022/08/05 09:36:48;;;;;;;;;2.00;2.00;;;;;53.95;15.05;101342.78;5002961;28;45514;-78
2022/08/05 09:39:16;;;;;;;;;4.67;3.67;;;;;54.12;15.72;101359.97;5015245;28;45818;-80
2022/08/05 09:42:02;;;;;;;;;2.00;2.00;;;;;54.02;16.16;101353.38;5009203;28;45675;-78
2022/08/05 09:44:40;;;;;;;;;4.33;3.33;;;;;51.80;16.46;101362.59;5011557;28;45493;-79
2022/08/05 09:47:09;;;;;;;;;4.00;4.00;;;;;51.05;17.27;101341.00;5012416;28;45599;-77
2022/08/05 09:49:39;;;;;;;;;4.67;3.67;;;;;51.21;16.42;101351.63;5015641;28;45675;-77
2022/08/05 09:52:31;;;;;;;;;3.00;3.00;;;;;51.27;16.73;101367.25;5026766;28;46235;-78
2022/08/05 09:54:59;;;;;;;;;3.00;3.00;;;;;51.70;16.60;101353.81;5026185;28;45579;-78
2022/08/05 09:57:33;;;;;;;;;4.33;4.00;;;;;52.23;15.86;101361.53;5031808;28;45400;-80
2022/08/05 10:00:02;;;;;;;;;4.33;4.33;;;;;52.58;15.97;101345.75;5011762;28;45498;-79
2022/08/05 10:02:54;;;;;;;;;5.67;4.00;;;;;51.67;17.02;101363.53;5019358;28;45685;-80
2022/08/05 10:05:27;;;;;;;;;3.33;3.33;;;;;51.31;16.99;101344.56;5021765;28;45548;-81
2022/08/05 10:07:58;;;;;;;;;4.00;4.00;;;;;51.50;16.30;101362.16;5031335;28;44807;-82
2022/08/05 10:10:27;;;;;;;;;4.00;2.00;;;;;51.22;16.26;101342.38;5026406;28;45240;-83
2022/08/05 10:12:59;;;;;;;;;3.00;3.00;;;;;51.39;16.84;101348.00;5014943;28;47171;-84
2022/08/05 10:15:37;;;;;;;;;3.00;3.00;;;;;52.11;16.20;101347.88;5021893;28;45817;-84
2022/08/05 10:18:15;;;;;;;;;2.00;1.67;;;;;52.43;16.23;101357.31;5030166;28;44805;-82
2022/08/05 10:20:45;;;;;;;;;4.00;3.00;;;;;52.76;15.59;101339.06;5044080;28;45780;-79
2022/08/05 10:23:13;;;;;;;;;6.00;3.00;;;;;52.22;15.53;101318.09;5004836;28;47321;-79
2022/08/05 10:25:39;;;;;;;;;2.67;2.67;;;;;51.00;16.15;101303.66;5025490;28;45472;-77
2022/08/05 10:28:05;;;;;;;;;3.33;3.33;;;;;50.29;16.53;101328.44;5032323;28;45867;-76
2022/08/05 10:30:31;;;;;;;;;3.67;3.67;;;;;50.28;16.24;101359.72;5025687;28;45917;-77
2022/08/05 10:33:00;;;;;;;;;3.00;3.00;;;;;50.05;16.82;101330.97;5030385;28;46592;-78
2022/08/05 10:35:26;;;;;;;;;4.00;2.33;;;;;49.87;16.44;101332.38;5021835;28;45505;-77
2022/08/05 10:37:53;;;;;;;;;4.33;4.00;;;;;50.00;17.42;101330.25;5022457;28;45754;-79
2022/08/05 10:40:28;;;;;;;;;3.33;3.33;;;;;50.15;17.36;101312.25;5026901;28;45448;-80
2022/08/05 10:43:01;;;;;;;;;2.33;2.33;;;;;49.60;16.62;101336.66;5035115;28;47279;-81
2022/08/05 10:45:29;;;;;;;;;4.33;3.00;;;;;49.72;16.77;101342.91;5020739;28;45628;-83
2022/08/05 10:47:55;;;;;;;;;5.33;5.33;;;;;48.60;17.42;101347.19;5012008;28;45435;-80
2022/08/05 10:50:24;;;;;;;;;3.00;3.00;;;;;47.64;17.89;101333.94;5017800;28;45398;-84
2022/08/05 10:52:52;;;;;;;;;3.00;3.00;;;;;46.45;18.59;101348.13;5017723;28;46944;-80
2022/08/05 10:55:18;;;;;;;;;6.00;4.00;;;;;45.44;19.64;101320.91;5020734;28;45340;-76
2022/08/05 10:57:45;;;;;;;;;3.67;2.00;;;;;45.12;20.26;101348.25;5035675;28;45568;-78
2022/08/05 11:00:22;;;;;;;;;5.00;5.00;;;;;43.59;21.56;101339.88;5022338;28;45493;-81
2022/08/05 11:03:06;;;;;;;;;6.33;5.00;;;;;43.63;21.46;101353.03;5024218;28;47062;-83
2022/08/05 11:05:33;;;;;;;;;3.00;3.00;;;;;44.28;21.69;101357.47;5024481;28;45865;-84
2022/08/05 11:08:03;;;;;;;;;3.25;3.25;;;;;44.78;21.54;101363.53;5027291;28;45315;-84
2022/08/05 11:10:30;;;;;;;;;4.00;3.50;;;;;43.98;21.19;101347.41;5022982;28;45825;-83
2022/08/05 11:12:58;;;;;;;;;7.00;5.00;;;;;43.09;21.14;101362.00;5028580;28;46226;-80
2022/08/05 11:15:34;;;;;;;;;5.67;4.67;;;;;41.78;22.51;101366.31;5026520;28;45847;-83
2022/08/05 11:18:28;;;;;;;;;3.25;3.00;;;;;41.59;22.76;101381.91;5029687;28;45364;-85
2022/08/05 11:20:54;;;;;;;;;4.00;4.00;;;;;41.27;21.93;101348.06;5015194;28;46158;-81
2022/08/05 11:23:30;;;;;;;;;3.00;3.00;;;;;41.23;22.69;101376.03;5017939;28;45140;-79
2022/08/05 11:26:01;;;;;;;;;4.33;4.33;;;;;40.54;23.73;101377.75;5018133;28;45543;-78
2022/08/05 11:28:26;;;;;;;;;4.25;4.25;;;;;39.67;25.30;101370.41;5022794;28;45423;-81
2022/08/05 11:30:55;;;;;;;;;6.00;6.00;;;;;38.89;26.44;101368.22;5017951;28;45546;-83
2022/08/05 11:33:50;;;;;;;;;3.00;2.00;;;;;38.14;27.06;101388.75;5022573;28;47442;-82
2022/08/05 11:36:37;;;;;;;;;6.75;5.50;;;;;37.37;28.05;101392.63;5020169;28;45337;-83
2022/08/05 11:39:04;;;;;;;;;3.00;3.00;;;;;36.44;28.72;101352.19;5021111;28;45360;-83